Moran, Minnesota
Current Conditions -  °F | °C
As of 2:53 AM on Thursday 23 Oct 2014 (Local Time) from KSAZ Reporting Station
Haze Haze  
Wind Chill: 52°   Ceiling: 8000
Heat Index: 52°   Visibility: 3mi
Dew Point: 50°   Wind: 3mph
Humidity: 94%   Direction: 160°SSE
Pressure: 29.94"   Gusts: NA
Location:  46.4416°N, 94.6389°W
Report Text: KSAZ 230753Z AUTO 16003KT 3SM BR SCT004 BKN080 OVC100 11/10 A2994 RMK AO2
Loading
Personal Weather Stations






























Interactive Weather Map New forecast layout! Learn more

10-Day Weather Forecast

Advertisements
Track Severe Weather on mobile